KHIE 230755Z 2308/2406 32010KT P6SM VCSH SCT015 OVC025
FM231400 33012G19KT P6SM BKN025
FM232000 30012KT P6SM SCT025 OVC040
From batch tds/tafs/production/2022/9/23/h07_m59_tafs.cache.xml
Issued (9 days ago)
Forecasts
2308/2314 32010KT P6SM SCT1500 OVC2500

---
wx_string: VCSH
fcst_time_to: '2022-09-23T14:00:00Z'
sky_condition:
- - sky_cover: SCT
    cloud_base_ft_agl: '1500'
- - sky_cover: OVC
    cloud_base_ft_agl: '2500'
wind_speed_kt: '10'
fcst_time_from: '2022-09-23T08:00:00Z'
wind_dir_degrees: '320'
visibility_statute_mi: '6.21'

FM231400 33012G19KT P6SM BKN2500

---
fcst_time_to: '2022-09-23T20:00:00Z'
wind_gust_kt: '19'
sky_condition:
- sky_cover: BKN
  cloud_base_ft_agl: '2500'
wind_speed_kt: '12'
fcst_time_from: '2022-09-23T14:00:00Z'
change_indicator: FM
wind_dir_degrees: '330'
visibility_statute_mi: '6.21'

FM232000 30012KT P6SM SCT2500 OVC4000

---
fcst_time_to: '2022-09-24T06:00:00Z'
sky_condition:
- - sky_cover: SCT
    cloud_base_ft_agl: '2500'
- - sky_cover: OVC
    cloud_base_ft_agl: '4000'
wind_speed_kt: '12'
fcst_time_from: '2022-09-23T20:00:00Z'
change_indicator: FM
wind_dir_degrees: '300'
visibility_statute_mi: '6.21'

talk